Time;durP1;ratioP1;P1;durP2;ratioP2;P2;SDS_P1;SDS_P2;PMS_P1;PMS_P2;Temp;Humidity;BMP_temperature;BMP_pressure;BME280_temperature;BME280_humidity;BME280_pressure;Samples;Min_cycle;Max_cycle;Signal;HPM_P1;HPM_P2
2023/12/27 00:00:55;;;;;;;;;;;4.40;80.20;;;;;;5141454;23;19908;-85
2023/12/27 00:02:56;;;;;;;;;;;4.40;80.20;;;;;;5192185;22;19903;-83
2023/12/27 00:04:57;;;;;;;;;;;4.40;80.30;;;;;;5166049;23;19904;-85
2023/12/27 00:06:58;;;;;;;;;;;4.50;80.40;;;;;;5165010;23;19906;-84
2023/12/27 00:09:01;;;;;;;;;;;4.40;80.30;;;;;;5194982;22;19911;-84
2023/12/27 00:11:03;;;;;;;;;;;4.40;80.20;;;;;;5165847;23;19982;-83
2023/12/27 00:13:05;;;;;;;;;;;4.50;80.20;;;;;;5165901;23;19911;-85
2023/12/27 00:15:05;;;;;;;;;;;4.60;80.20;;;;;;5165579;23;19961;-84
2023/12/27 00:17:15;;;;;;;;;;;4.50;80.00;;;;;;5169288;23;19903;-83
2023/12/27 00:19:16;;;;;;;;;;;4.50;79.80;;;;;;5168406;23;19911;-83
2023/12/27 00:21:17;;;;;;;;;;;4.60;79.80;;;;;;5169652;23;19926;-84
2023/12/27 00:23:24;;;;;;;;;;;4.50;79.60;;;;;;5196482;22;20348;-84
2023/12/27 00:25:27;;;;;;;;;;;4.50;79.60;;;;;;5168026;23;19904;-85
2023/12/27 00:27:30;;;;;;;;;;;4.50;79.50;;;;;;5168844;23;20425;-83
2023/12/27 00:29:38;;;;;;;;;;;4.50;79.40;;;;;;5170897;23;20660;-84
2023/12/27 00:31:39;;;;;;;;;;;4.50;80.00;;;;;;5197509;22;19965;-83
2023/12/27 00:33:41;;;;;;;;;;;4.50;79.30;;;;;;5146051;23;19911;-84
2023/12/27 00:35:42;;;;;;;;;;;4.50;79.30;;;;;;5170712;23;20509;-84
2023/12/27 00:37:43;;;;;;;;;;;4.50;79.30;;;;;;5143233;23;19927;-84
2023/12/27 00:39:44;;;;;;;;;;;4.50;79.20;;;;;;5169270;23;19980;-84
2023/12/27 00:41:49;;;;;;;;;;;4.50;79.20;;;;;;5195124;22;19918;-83
2023/12/27 00:43:50;;;;;;;;;;;4.50;79.20;;;;;;5169856;23;19959;-83
2023/12/27 00:45:50;;;;;;;;;;;4.60;79.10;;;;;;5143138;23;20141;-84
2023/12/27 00:47:51;;;;;;;;;;;4.50;79.10;;;;;;5168946;23;19923;-84
2023/12/27 00:49:52;;;;;;;;;;;4.50;79.10;;;;;;5194469;22;19918;-84
2023/12/27 00:51:55;;;;;;;;;;;4.50;79.10;;;;;;5170273;23;19927;-85
2023/12/27 00:53:57;;;;;;;;;;;4.50;79.10;;;;;;5169716;23;19938;-84
2023/12/27 00:56:01;;;;;;;;;;;4.60;79.10;;;;;;5168688;23;19907;-83
2023/12/27 00:58:05;;;;;;;;;;;4.50;79.00;;;;;;5167073;23;19935;-85
2023/12/27 01:00:06;;;;;;;;;;;4.60;79.10;;;;;;5169734;23;19907;-84
2023/12/27 01:02:08;;;;;;;;;;;4.50;79.10;;;;;;5197046;22;19915;-85
2023/12/27 01:04:08;;;;;;;;;;;4.50;79.00;;;;;;5196215;22;19904;-84
2023/12/27 01:06:10;;;;;;;;;;;4.50;79.10;;;;;;5167635;23;19950;-85
2023/12/27 01:08:11;;;;;;;;;;;4.60;79.10;;;;;;5144047;23;19913;-84
2023/12/27 01:10:14;;;;;;;;;;;4.70;79.20;;;;;;5194837;22;19914;-84
2023/12/27 01:12:35;;;;;;;;;;;4.60;79.10;;;;;;5167683;23;19904;-84
2023/12/27 01:14:35;;;;;;;;;;;4.50;78.90;;;;;;5192618;22;20185;-84
2023/12/27 01:16:36;;;;;;;;;;;4.50;79.00;;;;;;5164675;22;19930;-84
2023/12/27 01:18:36;;;;;;;;;;;4.60;79.10;;;;;;5140541;23;19986;-85
2023/12/27 01:20:37;;;;;;;;;;;4.50;78.90;;;;;;5166837;23;20411;-85
2023/12/27 01:22:58;;;;;;;;;;;4.50;79.00;;;;;;5171562;22;19930;-84
2023/12/27 01:25:18;;;;;;;;;;;4.50;78.90;;;;;;5170495;22;19977;-84
2023/12/27 01:27:19;;;;;;;;;;;4.50;78.90;;;;;;5190741;22;19907;-84
2023/12/27 01:29:20;;;;;;;;;;;4.50;79.00;;;;;;5192111;22;20018;-84
2023/12/27 01:31:40;;;;;;;;;;;4.50;79.00;;;;;;5173331;22;19987;-85
2023/12/27 01:34:01;;;;;;;;;;;4.50;78.90;;;;;;5196075;22;19918;-85
2023/12/27 01:36:22;;;;;;;;;;;4.50;78.90;;;;;;5172750;22;19908;-83
2023/12/27 01:38:42;;;;;;;;;;;4.50;78.80;;;;;;5171138;22;19908;-84
2023/12/27 01:41:03;;;;;;;;;;;4.40;78.70;;;;;;5193543;22;19938;-85
2023/12/27 01:43:23;;;;;;;;;;;4.40;78.70;;;;;;5193259;22;19923;-86
2023/12/27 01:45:45;;;;;;;;;;;4.40;78.70;;;;;;5171066;22;19911;-84
2023/12/27 01:48:06;;;;;;;;;;;4.50;78.70;;;;;;5165616;22;19932;-85
2023/12/27 01:50:26;;;;;;;;;;;4.40;78.60;;;;;;5169163;22;19907;-84
2023/12/27 01:52:47;;;;;;;;;;;4.40;78.60;;;;;;5170330;22;19903;-84
2023/12/27 01:55:12;;;;;;;;;;;4.40;78.60;;;;;;5190501;22;19907;-85
2023/12/27 01:57:16;;;;;;;;;;;4.30;78.50;;;;;;5189411;22;19908;-85
2023/12/27 01:59:17;;;;;;;;;;;4.30;78.50;;;;;;5167564;23;20375;-84
2023/12/27 02:01:18;;;;;;;;;;;4.30;78.50;;;;;;5168337;23;19908;-84
2023/12/27 02:03:21;;;;;;;;;;;4.20;78.50;;;;;;5167703;23;19908;-85
2023/12/27 02:05:22;;;;;;;;;;;4.30;78.60;;;;;;5196882;22;19907;-84
2023/12/27 02:07:23;;;;;;;;;;;4.20;78.60;;;;;;5194391;22;19913;-84
2023/12/27 02:09:23;;;;;;;;;;;4.20;78.60;;;;;;5195406;22;19945;-83
2023/12/27 02:11:24;;;;;;;;;;;4.20;78.70;;;;;;5144335;23;19908;-85
2023/12/27 02:13:24;;;;;;;;;;;4.20;79.40;;;;;;5144198;23;19908;-84
2023/12/27 02:15:25;;;;;;;;;;;4.20;78.70;;;;;;5170266;23;19907;-85
2023/12/27 02:17:26;;;;;;;;;;;4.20;78.70;;;;;;5195942;22;20248;-84
2023/12/27 02:19:27;;;;;;;;;;;4.10;78.70;;;;;;5195630;22;19917;-85
2023/12/27 02:21:28;;;;;;;;;;;4.20;78.80;;;;;;5197242;22;19974;-85
2023/12/27 02:23:30;;;;;;;;;;;4.10;78.70;;;;;;5170243;23;19907;-84
2023/12/27 02:25:31;;;;;;;;;;;4.10;78.80;;;;;;5195544;22;19910;-84
2023/12/27 02:27:32;;;;;;;;;;;4.10;78.80;;;;;;5195859;22;19947;-83
2023/12/27 02:29:34;;;;;;;;;;;4.10;78.80;;;;;;5169242;23;19951;-85
2023/12/27 02:31:34;;;;;;;;;;;4.10;78.70;;;;;;5194150;22;19907;-83
2023/12/27 02:33:35;;;;;;;;;;;4.10;78.70;;;;;;5169516;23;19903;-85
2023/12/27 02:35:36;;;;;;;;;;;4.10;78.80;;;;;;5195187;22;20169;-85
2023/12/27 02:37:37;;;;;;;;;;;4.10;78.80;;;;;;5169214;23;19908;-84
2023/12/27 02:39:37;;;;;;;;;;;4.00;78.70;;;;;;5196807;22;19910;-84
2023/12/27 02:41:58;;;;;;;;;;;4.00;78.80;;;;;;5169845;22;19998;-84
2023/12/27 02:43:59;;;;;;;;;;;4.00;78.80;;;;;;5168035;23;19983;-83
2023/12/27 02:46:20;;;;;;;;;;;4.00;78.90;;;;;;5192976;22;19926;-84
2023/12/27 02:48:40;;;;;;;;;;;4.00;78.90;;;;;;5194160;22;19918;-84
2023/12/27 02:51:01;;;;;;;;;;;4.00;78.90;;;;;;5171112;22;19912;-84
2023/12/27 02:53:02;;;;;;;;;;;4.00;78.90;;;;;;5169887;23;19986;-84
2023/12/27 02:55:22;;;;;;;;;;;4.00;78.90;;;;;;5194664;22;19914;-83
2023/12/27 02:57:43;;;;;;;;;;;4.00;78.90;;;;;;5170995;22;19910;-84
2023/12/27 03:00:04;;;;;;;;;;;3.90;78.90;;;;;;5194402;22;19923;-85
2023/12/27 03:02:24;;;;;;;;;;;3.90;78.90;;;;;;5180772;22;19910;-84
2023/12/27 03:04:45;;;;;;;;;;;3.90;79.00;;;;;;5175001;22;19910;-85
2023/12/27 03:07:07;;;;;;;;;;;3.90;79.00;;;;;;5198332;22;19903;-84
2023/12/27 03:09:28;;;;;;;;;;;3.90;78.90;;;;;;5178582;22;19929;-85
2023/12/27 03:11:48;;;;;;;;;;;3.90;78.90;;;;;;5197471;22;20398;-84
2023/12/27 03:14:09;;;;;;;;;;;3.90;79.00;;;;;;5176234;22;19899;-84
2023/12/27 03:16:29;;;;;;;;;;;3.90;79.00;;;;;;5197965;22;19907;-84
2023/12/27 03:18:50;;;;;;;;;;;3.90;79.00;;;;;;5198585;22;19931;-85
2023/12/27 03:20:51;;;;;;;;;;;3.80;79.00;;;;;;5171248;23;19977;-85
2023/12/27 03:22:51;;;;;;;;;;;3.90;79.10;;;;;;5172547;23;19907;-85
2023/12/27 03:24:52;;;;;;;;;;;3.80;78.90;;;;;;5147806;23;19904;-85
2023/12/27 03:26:53;;;;;;;;;;;3.90;79.00;;;;;;5196716;22;19914;-85
2023/12/27 03:28:53;;;;;;;;;;;3.70;78.90;;;;;;5172911;23;20411;-86
2023/12/27 03:30:54;;;;;;;;;;;3.80;79.00;;;;;;5196057;22;19891;-84
2023/12/27 03:32:55;;;;;;;;;;;3.80;79.00;;;;;;5172196;23;19908;-85
2023/12/27 03:34:55;;;;;;;;;;;3.80;79.00;;;;;;5172009;23;19952;-84
2023/12/27 03:36:56;;;;;;;;;;;3.80;79.00;;;;;;5198129;22;19907;-84
2023/12/27 03:38:57;;;;;;;;;;;3.80;78.90;;;;;;5172737;23;19970;-86
2023/12/27 03:40:57;;;;;;;;;;;3.70;78.80;;;;;;5172301;23;19938;-85
2023/12/27 03:42:58;;;;;;;;;;;3.80;78.90;;;;;;5171900;23;19975;-84
2023/12/27 03:44:59;;;;;;;;;;;3.80;78.80;;;;;;5171972;23;19899;-85
2023/12/27 03:46:59;;;;;;;;;;;3.80;78.80;;;;;;5171680;23;19908;-85
2023/12/27 03:49:01;;;;;;;;;;;3.70;78.80;;;;;;5196022;22;19977;-85
2023/12/27 03:51:03;;;;;;;;;;;3.80;78.70;;;;;;5171454;23;19923;-84
2023/12/27 03:53:07;;;;;;;;;;;3.60;78.60;;;;;;5198641;22;19945;-84
2023/12/27 03:55:10;;;;;;;;;;;3.70;78.60;;;;;;5171148;23;19908;-85
2023/12/27 03:57:30;;;;;;;;;;;3.60;78.50;;;;;;5192541;22;19939;-85
2023/12/27 04:00:00;;;;;;;;;;;3.60;78.50;;;;;;5179977;22;20202;-87
2023/12/27 04:02:21;;;;;;;;;;;3.60;78.50;;;;;;5177071;22;19924;-85
2023/12/27 04:04:41;;;;;;;;;;;3.60;78.50;;;;;;5198435;22;20127;-84
2023/12/27 04:07:02;;;;;;;;;;;3.70;78.50;;;;;;5199959;22;19911;-85
2023/12/27 04:09:03;;;;;;;;;;;3.60;78.50;;;;;;5171853;23;19939;-85
2023/12/27 04:11:23;;;;;;;;;;;3.50;78.40;;;;;;5198461;22;19927;-85
2023/12/27 04:13:47;;;;;;;;;;;3.50;78.50;;;;;;5199033;22;19903;-85
2023/12/27 04:16:07;;;;;;;;;;;3.50;78.50;;;;;;5174932;22;19915;-84
2023/12/27 04:18:28;;;;;;;;;;;3.60;78.70;;;;;;5175847;22;19934;-84
2023/12/27 04:21:20;;;;;;;;;;;3.50;78.60;;;;;;5176786;22;19961;-84
2023/12/27 04:23:43;;;;;;;;;;;3.50;78.60;;;;;;5173193;22;19907;-84
2023/12/27 04:26:04;;;;;;;;;;;3.50;78.70;;;;;;5193328;22;19907;-84
2023/12/27 04:28:24;;;;;;;;;;;3.40;78.60;;;;;;5174004;22;19916;-84
2023/12/27 04:30:45;;;;;;;;;;;3.40;78.60;;;;;;5194984;22;19919;-85
2023/12/27 04:33:06;;;;;;;;;;;3.40;78.60;;;;;;5174022;22;19918;-85
2023/12/27 04:35:26;;;;;;;;;;;3.40;78.50;;;;;;5172273;22;19903;-84
2023/12/27 04:37:47;;;;;;;;;;;3.40;78.60;;;;;;5174261;22;19907;-85
2023/12/27 04:39:47;;;;;;;;;;;3.30;78.50;;;;;;5197350;22;19972;-85
2023/12/27 04:41:48;;;;;;;;;;;3.30;78.50;;;;;;5169201;23;19915;-85
2023/12/27 04:43:48;;;;;;;;;;;3.30;78.50;;;;;;5195266;22;19930;-84
2023/12/27 04:45:49;;;;;;;;;;;3.30;78.60;;;;;;5144090;22;20183;-84
2023/12/27 04:47:50;;;;;;;;;;;3.30;78.60;;;;;;5194814;22;19922;-84
2023/12/27 04:49:50;;;;;;;;;;;3.30;78.60;;;;;;5170059;22;19907;-85
2023/12/27 04:51:51;;;;;;;;;;;3.30;78.60;;;;;;5169516;22;19903;-85
2023/12/27 04:53:52;;;;;;;;;;;3.40;78.70;;;;;;5144391;23;19975;-84
2023/12/27 04:55:53;;;;;;;;;;;3.20;78.50;;;;;;5167244;23;19908;-85
2023/12/27 04:57:53;;;;;;;;;;;3.20;78.50;;;;;;5195897;22;19930;-85
2023/12/27 04:59:54;;;;;;;;;;;3.20;78.50;;;;;;5168635;23;19911;-84
2023/12/27 05:01:55;;;;;;;;;;;3.20;78.40;;;;;;5194818;22;19927;-85
2023/12/27 05:03:55;;;;;;;;;;;3.20;78.40;;;;;;5167622;22;19912;-84
2023/12/27 05:05:57;;;;;;;;;;;3.20;78.40;;;;;;5194864;22;19914;-85
2023/12/27 05:08:17;;;;;;;;;;;3.30;78.40;;;;;;5193495;22;20457;-84
2023/12/27 05:10:38;;;;;;;;;;;3.20;78.30;;;;;;5196717;22;19960;-85
2023/12/27 05:12:58;;;;;;;;;;;3.20;78.30;;;;;;5199175;22;19914;-84
2023/12/27 05:15:19;;;;;;;;;;;3.10;78.20;;;;;;5194763;22;19911;-84
2023/12/27 05:17:40;;;;;;;;;;;3.00;78.10;;;;;;5199863;22;19903;-84
2023/12/27 05:20:00;;;;;;;;;;;3.10;78.20;;;;;;5176123;22;19915;-84
2023/12/27 05:22:21;;;;;;;;;;;3.00;78.10;;;;;;5199372;22;19907;-83
2023/12/27 05:24:41;;;;;;;;;;;3.00;78.10;;;;;;5202065;22;19964;-84
2023/12/27 05:27:02;;;;;;;;;;;3.00;78.10;;;;;;5200784;22;19911;-84
2023/12/27 05:29:23;;;;;;;;;;;2.90;78.00;;;;;;5203003;22;19915;-84
2023/12/27 05:31:43;;;;;;;;;;;2.90;78.10;;;;;;5201197;22;19951;-84
2023/12/27 05:34:07;;;;;;;;;;;2.90;78.10;;;;;;5199815;22;20216;-84
2023/12/27 05:36:27;;;;;;;;;;;2.80;78.10;;;;;;5180716;22;19907;-85
2023/12/27 05:38:48;;;;;;;;;;;2.80;78.30;;;;;;5201902;22;19951;-84
2023/12/27 05:41:09;;;;;;;;;;;2.80;78.30;;;;;;5203045;22;19907;-83
2023/12/27 05:43:29;;;;;;;;;;;2.80;78.50;;;;;;5202780;22;19907;-84
2023/12/27 05:45:30;;;;;;;;;;;2.80;78.50;;;;;;5175941;23;19923;-85
2023/12/27 05:47:30;;;;;;;;;;;2.90;78.60;;;;;;5201959;22;20010;-83
2023/12/27 05:49:31;;;;;;;;;;;2.80;78.60;;;;;;5201940;22;19961;-85
2023/12/27 05:51:33;;;;;;;;;;;2.80;78.70;;;;;;5203419;22;19907;-84
2023/12/27 05:53:33;;;;;;;;;;;2.80;78.70;;;;;;5203217;22;19930;-85
2023/12/27 05:55:34;;;;;;;;;;;2.70;78.60;;;;;;5174645;23;19990;-85
2023/12/27 05:57:35;;;;;;;;;;;2.70;79.30;;;;;;5198483;22;19926;-83
2023/12/27 05:59:35;;;;;;;;;;;2.70;78.60;;;;;;5194325;22;19914;-84
2023/12/27 06:01:36;;;;;;;;;;;2.70;78.60;;;;;;5169029;23;19987;-84
2023/12/27 06:03:36;;;;;;;;;;;2.70;78.60;;;;;;5196769;22;19959;-85
2023/12/27 06:05:37;;;;;;;;;;;2.70;78.50;;;;;;5144381;23;19904;-84
2023/12/27 06:07:38;;;;;;;;;;;2.70;78.50;;;;;;5144155;23;19927;-84
2023/12/27 06:09:39;;;;;;;;;;;2.70;78.50;;;;;;5167818;23;19903;-84
2023/12/27 06:11:39;;;;;;;;;;;2.60;78.40;;;;;;5175319;23;19903;-84
2023/12/27 06:13:40;;;;;;;;;;;2.60;78.40;;;;;;5198162;22;19931;-84
2023/12/27 06:15:41;;;;;;;;;;;2.60;78.30;;;;;;5196195;22;19919;-84
2023/12/27 06:17:42;;;;;;;;;;;2.60;78.30;;;;;;5195871;22;19934;-84
2023/12/27 06:20:04;;;;;;;;;;;2.60;78.30;;;;;;5173340;22;19911;-84
2023/12/27 06:22:24;;;;;;;;;;;2.60;78.30;;;;;;5197446;22;19929;-84
2023/12/27 06:24:45;;;;;;;;;;;2.50;78.20;;;;;;5197368;22;19949;-84
2023/12/27 06:27:06;;;;;;;;;;;2.60;78.30;;;;;;5197610;22;19903;-84
2023/12/27 06:29:27;;;;;;;;;;;2.50;78.20;;;;;;5195190;22;20259;-84
2023/12/27 06:31:48;;;;;;;;;;;2.50;78.30;;;;;;5197793;22;19933;-86
2023/12/27 06:34:08;;;;;;;;;;;2.40;78.30;;;;;;5194184;22;19941;-83
2023/12/27 06:36:29;;;;;;;;;;;2.40;78.30;;;;;;5188341;22;19933;-84
2023/12/27 06:38:49;;;;;;;;;;;2.40;78.30;;;;;;5195310;22;19923;-85
2023/12/27 06:41:10;;;;;;;;;;;2.40;78.40;;;;;;5171944;22;20065;-83
2023/12/27 06:43:31;;;;;;;;;;;2.40;78.50;;;;;;5193434;22;19949;-84
2023/12/27 06:45:52;;;;;;;;;;;2.40;78.50;;;;;;5196233;22;19939;-84
2023/12/27 06:48:12;;;;;;;;;;;2.30;78.50;;;;;;5171706;22;19916;-84
2023/12/27 06:50:33;;;;;;;;;;;2.30;78.50;;;;;;5190319;22;19934;-84
2023/12/27 06:52:54;;;;;;;;;;;2.30;78.50;;;;;;5193047;22;19911;-85
2023/12/27 06:55:15;;;;;;;;;;;2.30;78.50;;;;;;5194454;22;19965;-84
2023/12/27 06:57:35;;;;;;;;;;;2.30;78.50;;;;;;5192860;22;20029;-84
2023/12/27 06:59:36;;;;;;;;;;;2.30;78.50;;;;;;5187104;22;19990;-84
2023/12/27 07:01:58;;;;;;;;;;;2.30;78.60;;;;;;5166431;22;19908;-85
2023/12/27 07:04:05;;;;;;;;;;;2.20;78.50;;;;;;5169249;23;19907;-84
2023/12/27 07:06:40;;;;;;;;;;;2.20;78.50;;;;;;5193962;22;20268;-84
2023/12/27 07:09:03;;;;;;;;;;;2.20;78.50;;;;;;5148443;22;19942;-84
2023/12/27 07:13:13;;;;;;;;;;;2.20;78.50;;;;;;5189173;22;20385;-83
2023/12/27 07:15:14;;;;;;;;;;;2.10;78.40;;;;;;5189968;22;19926;-85
2023/12/27 07:17:17;;;;;;;;;;;2.10;78.50;;;;;;5164655;22;19930;-84
2023/12/27 07:20:08;;;;;;;;;;;2.20;78.50;;;;;;5191376;22;19907;-84
2023/12/27 07:24:22;;;;;;;;;;;2.10;78.50;;;;;;5171157;22;20255;-82
2023/12/27 07:26:43;;;;;;;;;;;2.00;78.50;;;;;;5194803;22;20240;-83
2023/12/27 07:29:04;;;;;;;;;;;2.00;78.60;;;;;;5189475;22;19920;-84
2023/12/27 07:31:24;;;;;;;;;;;2.00;78.60;;;;;;5170665;22;19940;-84
2023/12/27 07:33:45;;;;;;;;;;;2.00;78.60;;;;;;5196099;22;19908;-83
2023/12/27 07:36:06;;;;;;;;;;;2.00;78.60;;;;;;5192480;22;19907;-84
2023/12/27 07:38:27;;;;;;;;;;;2.00;78.70;;;;;;5171747;22;19928;-83
2023/12/27 07:40:50;;;;;;;;;;;2.00;78.70;;;;;;5193587;22;19907;-84
2023/12/27 07:43:10;;;;;;;;;;;2.10;78.90;;;;;;5195484;22;19923;-85
2023/12/27 07:45:31;;;;;;;;;;;2.00;78.90;;;;;;5194488;22;19930;-84
2023/12/27 07:47:31;;;;;;;;;;;2.00;78.90;;;;;;5196374;22;19904;-85
2023/12/27 07:49:32;;;;;;;;;;;2.00;78.90;;;;;;5195028;22;19915;-87
2023/12/27 07:51:32;;;;;;;;;;;2.00;78.90;;;;;;5193770;22;19993;-85
2023/12/27 07:53:34;;;;;;;;;;;2.00;79.00;;;;;;5196406;22;20405;-84
2023/12/27 07:55:34;;;;;;;;;;;2.00;79.00;;;;;;5167670;23;19919;-84
2023/12/27 07:57:35;;;;;;;;;;;2.00;79.00;;;;;;5195381;22;20102;-86
2023/12/27 07:59:36;;;;;;;;;;;2.00;79.00;;;;;;5165956;23;19907;-84
2023/12/27 08:01:36;;;;;;;;;;;2.00;79.00;;;;;;5195073;22;20438;-85
2023/12/27 08:03:39;;;;;;;;;;;1.90;79.70;;;;;;5191115;22;19908;-84
2023/12/27 08:05:39;;;;;;;;;;;2.00;79.10;;;;;;5195547;22;19914;-86
2023/12/27 08:07:40;;;;;;;;;;;2.00;79.10;;;;;;5197827;22;19908;-84
2023/12/27 08:09:41;;;;;;;;;;;2.00;79.20;;;;;;5165809;23;19908;-84
2023/12/27 08:11:41;;;;;;;;;;;1.90;79.10;;;;;;5199545;22;19908;-84
2023/12/27 08:13:42;;;;;;;;;;;2.00;79.20;;;;;;5196054;22;20227;-84
2023/12/27 08:15:43;;;;;;;;;;;2.00;79.20;;;;;;5168907;22;19943;-84
2023/12/27 08:17:43;;;;;;;;;;;2.00;79.20;;;;;;5165370;22;19911;-82
2023/12/27 08:19:44;;;;;;;;;;;2.00;79.20;;;;;;5167130;23;19907;-83
2023/12/27 08:21:45;;;;;;;;;;;2.00;79.30;;;;;;5194607;22;19915;-84
2023/12/27 08:23:46;;;;;;;;;;;2.00;79.30;;;;;;5165137;23;19931;-84
2023/12/27 08:25:46;;;;;;;;;;;2.10;79.40;;;;;;5165121;23;20335;-83
2023/12/27 08:27:52;;;;;;;;;;;2.10;80.10;;;;;;5194495;22;19934;-83
2023/12/27 08:29:53;;;;;;;;;;;2.00;79.40;;;;;;5196231;22;19915;-85
2023/12/27 08:31:58;;;;;;;;;;;2.00;79.40;;;;;;5167703;23;19917;-85
2023/12/27 08:34:19;;;;;;;;;;;2.00;79.40;;;;;;5196482;22;19903;-83
2023/12/27 08:36:44;;;;;;;;;;;2.00;79.40;;;;;;5197681;22;19922;-84
2023/12/27 08:39:05;;;;;;;;;;;2.20;79.60;;;;;;5196415;22;19914;-83
2023/12/27 08:41:26;;;;;;;;;;;2.10;79.60;;;;;;5174482;22;19908;-85
2023/12/27 08:43:47;;;;;;;;;;;2.10;79.60;;;;;;5194458;22;19904;-83
2023/12/27 08:46:11;;;;;;;;;;;2.10;79.60;;;;;;5196457;22;19951;-83
2023/12/27 08:48:31;;;;;;;;;;;2.10;79.70;;;;;;5197914;22;20010;-84
2023/12/27 08:50:32;;;;;;;;;;;2.10;79.60;;;;;;5198034;22;19930;-85
2023/12/27 08:52:32;;;;;;;;;;;2.20;79.70;;;;;;5172452;23;19927;-85
2023/12/27 08:54:33;;;;;;;;;;;2.20;79.80;;;;;;5172616;23;19912;-84
2023/12/27 08:56:34;;;;;;;;;;;2.30;79.80;;;;;;5199277;22;19907;-84
2023/12/27 08:58:34;;;;;;;;;;;2.20;79.80;;;;;;5199590;22;19907;-86
2023/12/27 09:00:55;;;;;;;;;;;2.10;79.80;;;;;;5199887;22;19904;-86
2023/12/27 09:03:16;;;;;;;;;;;2.30;80.00;;;;;;5176302;22;19904;-85
2023/12/27 09:05:16;;;;;;;;;;;2.30;80.10;;;;;;5171906;23;19999;-84
2023/12/27 09:07:17;;;;;;;;;;;2.30;80.10;;;;;;5172242;23;19914;-85
2023/12/27 09:09:37;;;;;;;;;;;2.30;80.00;;;;;;5196646;22;19935;-84
2023/12/27 09:11:59;;;;;;;;;;;2.40;80.20;;;;;;5199504;22;19903;-85
2023/12/27 09:14:20;;;;;;;;;;;2.40;80.20;;;;;;5198204;22;19907;-83
2023/12/27 09:16:28;;;;;;;;;;;2.40;80.10;;;;;;5171734;23;19932;-84
2023/12/27 09:18:48;;;;;;;;;;;2.40;80.10;;;;;;5199245;22;20029;-85
2023/12/27 09:21:09;;;;;;;;;;;2.40;80.20;;;;;;5198594;22;19903;-85
2023/12/27 09:23:29;;;;;;;;;;;2.40;80.20;;;;;;5197122;22;19911;-84
2023/12/27 09:25:50;;;;;;;;;;;2.50;80.20;;;;;;5193933;22;19915;-86
2023/12/27 09:28:10;;;;;;;;;;;2.50;80.20;;;;;;5169178;22;19986;-82
2023/12/27 09:30:31;;;;;;;;;;;2.50;80.30;;;;;;5195188;22;19914;-85
2023/12/27 09:32:51;;;;;;;;;;;2.60;80.30;;;;;;5177892;22;19903;-85
2023/12/27 09:35:12;;;;;;;;;;;2.60;80.40;;;;;;5201410;22;19907;-84
2023/12/27 09:37:33;;;;;;;;;;;2.60;80.40;;;;;;5200577;22;19931;-86
2023/12/27 09:39:33;;;;;;;;;;;2.60;80.50;;;;;;5200748;22;19911;-84
2023/12/27 09:41:34;;;;;;;;;;;2.60;80.40;;;;;;5146710;23;19927;-84
2023/12/27 09:43:35;;;;;;;;;;;2.80;80.50;;;;;;5197550;22;19907;-84
2023/12/27 09:45:36;;;;;;;;;;;2.70;80.40;;;;;;5168585;23;19904;-85
2023/12/27 09:47:37;;;;;;;;;;;2.70;80.40;;;;;;5169707;23;19919;-85
2023/12/27 09:49:38;;;;;;;;;;;2.70;80.40;;;;;;5197189;22;19947;-83
2023/12/27 09:51:39;;;;;;;;;;;2.70;80.40;;;;;;5172178;23;19941;-85
2023/12/27 09:53:40;;;;;;;;;;;2.80;80.50;;;;;;5172466;23;19927;-85
2023/12/27 09:55:43;;;;;;;;;;;2.90;80.60;;;;;;5174534;22;19903;-86
2023/12/27 09:58:04;;;;;;;;;;;2.80;80.50;;;;;;5177446;22;20298;-85
2023/12/27 10:00:27;;;;;;;;;;;2.80;80.50;;;;;;5199279;22;19907;-82
2023/12/27 10:02:49;;;;;;;;;;;3.00;80.60;;;;;;5196606;22;19913;-83
2023/12/27 10:04:56;;;;;;;;;;;2.80;80.60;;;;;;5196561;22;19907;-86
2023/12/27 10:07:17;;;;;;;;;;;2.90;80.60;;;;;;5198764;22;19965;-86
2023/12/27 10:09:38;;;;;;;;;;;2.90;80.60;;;;;;5205362;22;19947;-85
2023/12/27 10:11:59;;;;;;;;;;;3.00;80.70;;;;;;5201438;22;19957;-85
2023/12/27 10:14:19;;;;;;;;;;;3.00;80.70;;;;;;5180100;22;19925;-86
2023/12/27 10:16:40;;;;;;;;;;;3.00;80.70;;;;;;5200864;22;19907;-84
2023/12/27 10:19:00;;;;;;;;;;;3.10;80.80;;;;;;5199165;22;19942;-84
2023/12/27 10:21:21;;;;;;;;;;;3.10;80.90;;;;;;5179514;22;19910;-86
2023/12/27 10:23:41;;;;;;;;;;;3.10;80.90;;;;;;5179216;22;20689;-86
2023/12/27 10:26:02;;;;;;;;;;;3.20;80.90;;;;;;5201887;22;19934;-86
2023/12/27 10:28:24;;;;;;;;;;;3.20;80.90;;;;;;5201195;22;19911;-86
2023/12/27 10:30:24;;;;;;;;;;;3.30;81.00;;;;;;5201473;22;20007;-86
2023/12/27 10:32:27;;;;;;;;;;;3.30;81.00;;;;;;5176595;23;19942;-85
2023/12/27 10:34:39;;;;;;;;;;;3.30;81.10;;;;;;5175116;23;19908;-85
2023/12/27 10:36:42;;;;;;;;;;;3.40;81.10;;;;;;5199947;22;19914;-85
2023/12/27 10:39:04;;;;;;;;;;;3.40;81.00;;;;;;5197775;22;19910;-86
2023/12/27 10:41:28;;;;;;;;;;;3.40;81.00;;;;;;5179861;22;19926;-86
2023/12/27 10:43:50;;;;;;;;;;;3.50;81.80;;;;;;5202452;22;19914;-87
2023/12/27 10:46:10;;;;;;;;;;;3.50;81.10;;;;;;5198847;22;19907;-86
2023/12/27 10:48:33;;;;;;;;;;;3.60;81.20;;;;;;5200777;22;19912;-85
2023/12/27 10:50:54;;;;;;;;;;;3.60;81.10;;;;;;5199534;22;19911;-85
2023/12/27 10:53:18;;;;;;;;;;;3.60;81.10;;;;;;5179673;22;19904;-86
2023/12/27 10:55:20;;;;;;;;;;;3.60;81.10;;;;;;5173033;23;19912;-85
2023/12/27 10:57:41;;;;;;;;;;;3.60;81.00;;;;;;5179175;22;19910;-84
2023/12/27 11:00:03;;;;;;;;;;;3.70;81.00;;;;;;5178389;22;19930;-86
2023/12/27 11:02:24;;;;;;;;;;;3.70;81.00;;;;;;5198576;22;19974;-85
2023/12/27 11:04:45;;;;;;;;;;;3.80;81.00;;;;;;5200484;22;19914;-85
2023/12/27 11:07:06;;;;;;;;;;;3.90;81.10;;;;;;5200580;22;20016;-85
2023/12/27 11:09:28;;;;;;;;;;;3.80;81.00;;;;;;5198900;22;19907;-85
2023/12/27 11:11:58;;;;;;;;;;;3.90;81.10;;;;;;5194950;22;20002;-84
2023/12/27 11:14:24;;;;;;;;;;;3.90;81.00;;;;;;5171758;22;19912;-86
2023/12/27 11:16:46;;;;;;;;;;;3.90;81.00;;;;;;5159737;22;19947;-86
2023/12/27 11:19:08;;;;;;;;;;;3.90;81.10;;;;;;5167762;23;20017;-85
2023/12/27 11:21:28;;;;;;;;;;;3.90;81.10;;;;;;5167707;23;19978;-87
2023/12/27 11:23:49;;;;;;;;;;;4.00;81.20;;;;;;5145252;23;19908;-87
2023/12/27 11:26:10;;;;;;;;;;;4.10;81.20;;;;;;5143679;23;19903;-86
2023/12/27 11:28:11;;;;;;;;;;;4.00;81.10;;;;;;5168291;23;19908;-86
2023/12/27 11:30:12;;;;;;;;;;;4.10;81.10;;;;;;5140096;23;19975;-86
2023/12/27 11:32:14;;;;;;;;;;;4.10;81.10;;;;;;5165014;23;19904;-85
2023/12/27 11:34:16;;;;;;;;;;;4.20;81.10;;;;;;5141042;23;19938;-86
2023/12/27 11:36:19;;;;;;;;;;;4.10;81.10;;;;;;5166278;23;20456;-86
2023/12/27 11:38:25;;;;;;;;;;;4.20;81.10;;;;;;5166531;23;19904;-86
2023/12/27 11:40:34;;;;;;;;;;;4.20;81.10;;;;;;5138473;23;19962;-86
2023/12/27 11:42:36;;;;;;;;;;;4.20;81.10;;;;;;5139680;23;19914;-86
2023/12/27 11:44:39;;;;;;;;;;;4.30;81.20;;;;;;5138991;23;19912;-86
2023/12/27 11:46:41;;;;;;;;;;;4.30;81.10;;;;;;5166613;23;19903;-86
2023/12/27 11:48:42;;;;;;;;;;;4.30;81.20;;;;;;5163231;23;19907;-85
2023/12/27 11:50:43;;;;;;;;;;;4.30;81.20;;;;;;5166088;23;20011;-86
2023/12/27 11:52:44;;;;;;;;;;;4.30;81.20;;;;;;5140356;23;19912;-86
2023/12/27 11:54:45;;;;;;;;;;;4.30;81.20;;;;;;5140325;23;19908;-86
2023/12/27 11:56:46;;;;;;;;;;;4.30;81.10;;;;;;5165915;23;19910;-86
2023/12/27 11:58:47;;;;;;;;;;;4.40;81.20;;;;;;5167196;23;19969;-86
2023/12/27 12:00:48;;;;;;;;;;;4.30;81.00;;;;;;5139104;23;19908;-86
2023/12/27 12:02:50;;;;;;;;;;;4.40;81.00;;;;;;5162904;23;19907;-86
2023/12/27 12:04:54;;;;;;;;;;;4.30;80.90;;;;;;5165651;23;20422;-86
2023/12/27 12:07:23;;;;;;;;;;;4.40;81.00;;;;;;5115373;23;19923;-86
2023/12/27 12:09:30;;;;;;;;;;;4.40;80.90;;;;;;5136974;23;19986;-86
2023/12/27 12:12:08;;;;;;;;;;;4.40;80.90;;;;;;5166450;23;19904;-87
2023/12/27 12:14:09;;;;;;;;;;;4.40;80.90;;;;;;5113553;23;19939;-86
2023/12/27 12:16:32;;;;;;;;;;;4.50;81.00;;;;;;5138015;23;19918;-86
2023/12/27 12:18:39;;;;;;;;;;;4.50;81.00;;;;;;5137622;23;19974;-86
2023/12/27 12:21:00;;;;;;;;;;;4.40;80.90;;;;;;5163863;23;19904;-87
2023/12/27 12:23:20;;;;;;;;;;;4.40;80.90;;;;;;5141116;23;19935;-86
2023/12/27 12:25:25;;;;;;;;;;;4.60;81.10;;;;;;5137566;23;19935;-87
2023/12/27 12:27:47;;;;;;;;;;;4.50;81.00;;;;;;5166857;23;20290;-87
2023/12/27 12:30:08;;;;;;;;;;;4.60;81.00;;;;;;5176033;23;19908;-86
2023/12/27 12:32:29;;;;;;;;;;;4.50;81.00;;;;;;5174973;23;19908;-87
2023/12/27 12:34:49;;;;;;;;;;;4.50;80.90;;;;;;5153325;23;19908;-87
2023/12/27 12:37:10;;;;;;;;;;;4.50;80.90;;;;;;5152996;23;19892;-86
2023/12/27 12:39:31;;;;;;;;;;;4.60;80.90;;;;;;5153916;23;19930;-86
2023/12/27 12:41:52;;;;;;;;;;;4.60;80.90;;;;;;5154901;23;19915;-86
2023/12/27 12:44:13;;;;;;;;;;;4.50;80.80;;;;;;5177448;23;20016;-87
2023/12/27 12:46:33;;;;;;;;;;;4.60;80.80;;;;;;5154803;23;19908;-86
2023/12/27 12:48:54;;;;;;;;;;;4.60;80.80;;;;;;5179439;23;20441;-86
2023/12/27 12:51:19;;;;;;;;;;;4.60;80.70;;;;;;5156394;23;19983;-87
2023/12/27 12:53:39;;;;;;;;;;;4.60;80.70;;;;;;5177285;23;19902;-87
2023/12/27 12:56:00;;;;;;;;;;;4.50;80.60;;;;;;5176969;23;19922;-84
2023/12/27 12:58:22;;;;;;;;;;;4.60;80.70;;;;;;5152821;23;19951;-86